Time;durP1;ratioP1;P1;durP2;ratioP2;P2;SDS_P1;SDS_P2;PMS_P1;PMS_P2;Temp;Humidity;BMP_temperature;BMP_pressure;BME280_temperature;BME280_humidity;BME280_pressure;Samples;Min_cycle;Max_cycle;Signal;HPM_P1;HPM_P2
2021/05/06 00:31:59;;;;;;;3.50;1.55;;;;;;;13.39;49.82;99679.34;1755845;80;21051;-64
2021/05/06 00:34:11;;;;;;;1.75;1.10;;;;;;;13.40;49.73;99696.22;1744742;82;21079;-65
2021/05/06 00:36:39;;;;;;;1.75;1.65;;;;;;;13.39;49.07;99688.02;1753765;80;21050;-64
2021/05/06 00:39:11;;;;;;;1.40;1.20;;;;;;;13.39;48.40;99690.64;1751178;80;21254;-64
2021/05/06 00:41:54;;;;;;;1.30;1.20;;;;;;;13.40;49.60;99682.30;1747149;82;21123;-64
2021/05/06 01:00:55;;;;;;;4.08;3.02;;;;;;;13.36;49.71;99666.52;1759302;80;21095;-64
2021/05/06 01:06:07;;;;;;;7.20;6.60;;;;;;;13.34;48.86;99658.80;1733702;80;21235;-64
2021/05/06 01:08:26;;;;;;;8.60;7.85;;;;;;;13.34;48.48;99656.66;1742266;81;21067;-65
2021/05/06 01:11:06;;;;;;;11.75;10.78;;;;;;;13.34;49.46;99660.11;1747907;81;21111;-65
2021/05/06 01:13:31;;;;;;;15.53;14.00;;;;;;;13.33;49.93;99658.45;1746667;82;21079;-65
2021/05/06 01:15:59;;;;;;;10.68;9.65;;;;;;;13.32;49.22;99655.97;1746575;81;21939;-65
2021/05/06 01:18:26;;;;;;;10.65;9.73;;;;;;;13.32;50.48;99653.34;1747495;82;21866;-65
2021/05/06 01:20:58;;;;;;;8.93;7.70;;;;;;;13.32;51.04;99654.66;1746887;82;21097;-65
2021/05/06 01:23:25;;;;;;;8.73;7.83;;;;;;;13.31;51.84;99638.13;1747387;82;21092;-64
2021/05/06 01:26:06;;;;;;;9.23;7.10;;;;;;;13.31;53.41;99643.84;1745741;81;21055;-64
2021/05/06 01:28:27;;;;;;;10.00;8.88;;;;;;;13.31;53.88;99643.84;1743702;81;21043;-64
2021/05/06 01:32:02;;;;;;;13.83;11.12;;;;;;;13.31;53.67;99646.45;1764207;80;21245;-64
2021/05/06 01:33:41;;;;;;;8.60;7.70;;;;;;;13.29;52.81;99643.14;1731996;80;21518;-65
2021/05/06 01:36:20;;;;;;;6.95;6.40;;;;;;;13.28;53.25;99635.78;1765901;80;21503;-65
2021/05/06 02:00:18;;;;;;;12.03;10.40;;;;;;;13.18;53.45;99620.52;1739348;80;21094;-65
2021/05/06 02:02:48;;;;;;;16.30;13.62;;;;;;;13.17;54.04;99618.86;1767980;80;21099;-65
2021/05/06 02:05:18;;;;;;;13.00;11.63;;;;;;;13.17;53.86;99615.42;1770984;80;21266;-65
2021/05/06 02:07:47;;;;;;;11.35;9.50;;;;;;;13.14;54.55;99617.31;1772414;80;21082;-65
2021/05/06 02:10:19;;;;;;;11.75;7.78;;;;;;;13.12;54.76;99611.38;1731601;81;22220;-65
2021/05/06 02:12:47;;;;;;;6.78;5.00;;;;;;;13.12;54.68;99612.69;1719159;82;24987;-65
2021/05/06 02:15:23;;;;;;;3.95;3.10;;;;;;;13.10;54.43;99605.93;1746273;81;21113;-65
2021/05/06 02:17:46;;;;;;;3.50;2.55;;;;;;;13.08;54.89;99613.91;1763208;80;21052;-65
2021/05/06 02:20:15;;;;;;;2.35;2.15;;;;;;;13.08;54.62;99606.06;1746411;81;22138;-65
2021/05/06 02:22:46;;;;;;;2.03;1.90;;;;;;;13.07;54.37;99608.81;1760744;80;21758;-65
2021/05/06 02:25:14;;;;;;;2.40;2.20;;;;;;;13.06;54.45;99606.67;1761610;80;21098;-65
2021/05/06 02:27:42;;;;;;;3.17;2.27;;;;;;;13.05;54.71;99608.94;1746991;82;21451;-65
2021/05/06 02:30:11;;;;;;;3.12;2.87;;;;;;;13.03;54.89;99606.94;1747208;81;21076;-65
2021/05/06 02:32:38;;;;;;;3.30;2.98;;;;;;;13.02;54.96;99603.98;1748610;81;21285;-65
2021/05/06 02:35:08;;;;;;;3.70;2.72;;;;;;;13.01;55.92;99601.02;1747062;81;21915;-65
2021/05/06 02:37:35;;;;;;;3.45;2.60;;;;;;;13.01;55.90;99597.56;1760017;80;21025;-65
2021/05/06 02:40:05;;;;;;;4.05;2.58;;;;;;;13.00;55.63;99591.51;1748325;81;21690;-65
2021/05/06 02:42:32;;;;;;;2.98;2.77;;;;;;;13.00;55.46;99590.20;1760189;80;22627;-65
2021/05/06 02:45:00;;;;;;;3.20;2.60;;;;;;;12.99;55.69;99585.13;1748530;81;21682;-65
2021/05/06 02:47:29;;;;;;;3.60;3.22;;;;;;;12.98;56.73;99594.77;1747202;81;21108;-65
2021/05/06 02:49:57;;;;;;;3.47;3.17;;;;;;;12.98;57.09;99588.70;1747795;81;21101;-65
2021/05/06 02:52:34;;;;;;;4.67;3.65;;;;;;;12.96;56.50;99591.45;1759778;80;21492;-65
2021/05/06 02:55:10;;;;;;;5.40;3.17;;;;;;;12.96;55.84;99586.22;1759098;80;21113;-65
2021/05/06 02:57:39;;;;;;;5.33;3.70;;;;;;;12.96;55.54;99586.22;1747096;82;21282;-65
2021/05/06 03:02:56;;;;;;;4.33;3.05;;;;;;;12.96;54.99;99579.69;1746704;82;21099;-65
2021/05/06 03:05:28;;;;;;;4.60;3.05;;;;;;;12.96;54.37;99587.53;1747419;82;21976;-65
2021/05/06 03:08:04;;;;;;;6.70;3.10;;;;;;;12.94;53.84;99582.91;1746765;81;21771;-65
2021/05/06 03:24:13;;;;;;;3.70;2.55;;;;;;;12.92;54.58;99591.84;1749131;80;21193;-65
2021/05/06 03:26:41;;;;;;;3.05;2.75;;;;;;;12.91;55.64;99596.25;1759767;80;21069;-65
2021/05/06 03:29:17;;;;;;;5.12;3.10;;;;;;;12.91;55.89;99592.33;1750642;80;21085;-65
2021/05/06 03:42:40;;;;;;;4.62;3.90;;;;;;;12.87;53.91;99587.02;1753656;80;21465;-65
2021/05/06 03:50:45;;;;;;;3.22;2.40;;;;;;;12.85;54.07;99591.55;1746336;81;21091;-66
2021/05/06 04:12:26;;;;;;;3.83;2.33;;;;;;;12.95;56.14;99588.48;1764049;80;21107;-65
2021/05/06 04:17:34;;;;;;;3.42;2.22;;;;;;;13.00;56.43;99592.81;1746631;81;21233;-65
2021/05/06 04:25:38;;;;;;;3.90;2.40;;;;;;;13.08;56.51;99595.60;1759951;81;21064;-65
2021/05/06 04:36:20;;;;;;;2.98;1.85;;;;;;;13.22;55.18;99596.23;1748444;81;23105;-67
2021/05/06 04:38:35;;;;;;;;;;;;;;;13.26;55.73;99580.61;1755738;80;21420;-65
2021/05/06 04:41:18;;;;;;;2.95;2.33;;;;;;;13.29;55.94;99591.63;1759410;80;20822;-65
2021/05/06 04:46:47;;;;;;;2.77;2.40;;;;;;;13.36;56.41;99593.23;1747332;82;24278;-65
2021/05/06 04:54:42;;;;;;;5.72;2.40;;;;;;;13.50;56.52;99609.88;1747324;82;21056;-65
2021/05/06 05:05:22;;;;;;;2.17;1.80;;;;;;;13.72;55.67;99614.87;1748260;81;21113;-65
2021/05/06 05:07:53;;;;;;;2.60;1.82;;;;;;;13.80;55.20;99618.59;1746850;82;21041;-65
2021/05/06 05:13:11;;;;;;;2.05;1.42;;;;;;;13.93;55.20;99615.20;1746690;82;30047;-65
2021/05/06 05:21:23;;;;;;;3.00;1.45;;;;;;;14.14;54.92;99593.62;1746579;82;21799;-65
2021/05/06 05:23:44;;;;;;;2.02;1.60;;;;;;;14.20;55.49;99589.61;1745848;81;24203;-65
2021/05/06 05:26:08;;;;;;;2.52;1.70;;;;;;;14.26;55.44;99591.19;1738837;81;21425;-65
2021/05/06 05:28:35;;;;;;;2.37;1.72;;;;;;;14.31;55.16;99602.56;1737367;82;21220;-65
2021/05/06 05:31:02;;;;;;;2.80;2.05;;;;;;;14.35;55.25;99594.77;1713794;82;22808;-66
2021/05/06 05:33:34;;;;;;;1.60;1.50;;;;;;;14.39;54.44;99589.59;1737491;82;21052;-66
2021/05/06 05:36:13;;;;;;;1.52;1.42;;;;;;;14.43;53.96;99591.81;1736292;82;21398;-65
2021/05/06 05:39:24;;;;;;;3.35;1.87;;;;;;;14.48;53.61;99586.64;1736301;82;20999;-65
2021/05/06 05:44:36;;;;;;;6.05;1.98;;;;;;;14.55;54.15;99588.55;1724810;82;29204;-65
2021/05/06 05:54:47;;;;;;;2.77;1.82;;;;;;;14.61;52.97;99585.36;1682087;84;21088;-65
2021/05/06 05:57:15;;;;;;;;;;;;;;;14.64;52.86;99576.38;1685183;84;21551;-65
2021/05/06 05:59:43;;;;;;;5.17;1.80;;;;;;;14.65;52.21;99583.28;1674132;83;20192;-65
2021/05/06 06:02:11;;;;;;;4.67;1.80;;;;;;;14.64;51.98;99590.32;1673334;84;21071;-66
2021/05/06 06:04:38;;;;;;;2.15;1.95;;;;;;;14.64;51.28;99579.00;1683488;84;21086;-66
2021/05/06 06:07:06;;;;;;;1.92;1.50;;;;;;;14.65;51.55;99576.72;1683209;84;21133;-65
2021/05/06 06:09:35;;;;;;;2.45;1.70;;;;;;;14.66;52.43;99574.44;1683277;85;21054;-65
2021/05/06 06:12:03;;;;;;;2.22;1.42;;;;;;;14.69;52.26;99580.23;1684396;84;21518;-65
2021/05/06 06:17:11;;;;;;;2.40;1.52;;;;;;;14.83;52.88;99574.97;1654964;85;21118;-65
2021/05/06 06:19:41;;;;;;;1.67;1.57;;;;;;;14.90;53.02;99570.80;1672055;85;21074;-65
2021/05/06 06:22:10;;;;;;;3.00;1.60;;;;;;;14.95;53.08;99569.88;1668304;82;22190;-66
2021/05/06 06:24:38;;;;;;;3.95;1.85;;;;;;;14.98;52.17;99565.66;1660370;83;24627;-66
2021/05/06 06:27:05;;;;;;;3.35;1.87;;;;;;;15.02;52.07;99563.56;1682679;84;46789;-73
2021/05/06 06:29:34;;;;;;;5.50;2.08;;;;;;;15.03;47.85;99572.61;1683618;84;21573;-75
2021/05/06 06:32:05;;;;;;;3.58;2.10;;;;;;;14.96;46.70;99568.91;1689912;84;21137;-75
2021/05/06 06:34:32;;;;;;;1.62;1.40;;;;;;;14.88;46.75;99570.12;1693513;84;21236;-75
2021/05/06 06:37:00;;;;;;;3.33;1.75;;;;;;;14.83;46.26;99570.21;1689772;84;21529;-72
2021/05/06 06:39:28;;;;;;;3.95;1.90;;;;;;;14.74;45.83;99585.84;1691857;84;21161;-70
2021/05/06 06:41:55;;;;;;;4.53;1.30;;;;;;;14.71;45.68;99601.06;1688957;84;21166;-72
2021/05/06 06:44:30;;;;;;;6.78;1.55;;;;;;;14.68;44.81;99599.55;1696369;84;21197;-73
2021/05/06 06:47:01;;;;;;;3.62;1.42;;;;;;;14.63;44.62;99594.39;1688298;84;21134;-72
2021/05/06 06:49:35;;;;;;;1.95;1.02;;;;;;;14.58;44.66;99610.55;1690327;84;21129;-72
2021/05/06 06:52:04;;;;;;;5.67;1.55;;;;;;;14.58;45.03;99609.73;1689522;83;21193;-72
2021/05/06 06:54:31;;;;;;;1.70;1.50;;;;;;;14.58;45.21;99618.42;1692490;84;21448;-73
2021/05/06 06:57:00;;;;;;;1.92;1.65;;;;;;;14.59;45.12;99612.69;1696017;84;21165;-73
2021/05/06 06:59:28;;;;;;;4.30;1.50;;;;;;;14.58;45.21;99603.17;1696105;84;21178;-72
2021/05/06 07:01:56;;;;;;;3.12;1.77;;;;;;;14.55;45.13;99613.95;1677530;84;21339;-72
2021/05/06 07:04:24;;;;;;;4.30;1.70;;;;;;;14.51;45.47;99619.13;1688237;84;21894;-73
2021/05/06 07:06:51;;;;;;;2.72;2.10;;;;;;;14.48;45.45;99630.72;1688703;84;21117;-71
2021/05/06 07:09:19;;;;;;;3.87;1.62;;;;;;;14.47;45.79;99645.28;1684181;84;21568;-74
2021/05/06 07:11:47;;;;;;;2.60;1.30;;;;;;;14.48;45.79;99642.52;1695102;84;21158;-71
2021/05/06 07:14:15;;;;;;;5.65;1.57;;;;;;;14.48;45.55;99649.56;1697148;84;21134;-70
2021/05/06 07:16:43;;;;;;;3.10;1.40;;;;;;;14.45;45.91;99672.13;1672420;84;21181;-71
2021/05/06 07:19:11;;;;;;;1.90;1.47;;;;;;;14.43;46.09;99659.98;1696251;84;21146;-72
2021/05/06 07:21:38;;;;;;;2.80;1.20;;;;;;;14.43;46.14;99663.91;1668287;85;21343;-62
2021/05/06 07:24:08;;;;;;;2.25;1.32;;;;;;;14.41;46.66;99672.41;1675011;85;21121;-63
2021/05/06 07:26:37;;;;;;;4.90;1.77;;;;;;;14.41;47.28;99672.41;1688857;84;21164;-63
2021/05/06 07:29:06;;;;;;;4.20;1.40;;;;;;;14.40;48.11;99682.52;1676018;84;21459;-65
2021/05/06 07:31:35;;;;;;;3.72;1.72;;;;;;;14.38;48.93;99667.89;1661847;86;21226;-64
2021/05/06 07:34:05;;;;;;;4.05;1.45;;;;;;;14.34;49.92;99666.51;1672541;84;21158;-65
2021/05/06 07:36:34;;;;;;;3.37;2.00;;;;;;;14.27;51.06;99676.72;1681935;83;22238;-63
2021/05/06 07:39:05;;;;;;;3.52;1.57;;;;;;;14.23;51.98;99683.20;1648551;86;21460;-64
2021/05/06 07:41:34;;;;;;;3.00;1.70;;;;;;;14.27;53.04;99687.20;1685165;84;21134;-70
2021/05/06 07:44:04;;;;;;;4.97;1.72;;;;;;;14.35;53.30;99676.03;1691503;83;21968;-68
2021/05/06 07:46:35;;;;;;;7.67;2.22;;;;;;;14.46;52.47;99681.64;1668843;84;21741;-69
2021/05/06 07:49:04;;;;;;;3.87;1.52;;;;;;;14.52;52.34;99698.95;1657535;85;21955;-67
2021/05/06 07:51:34;;;;;;;2.95;1.47;;;;;;;14.60;52.16;99688.60;1663739;86;21545;-74
2021/05/06 07:54:06;;;;;;;5.67;1.83;;;;;;;14.60;52.09;99695.16;1647162;86;21614;-68
2021/05/06 07:56:35;;;;;;;3.25;2.05;;;;;;;14.49;52.48;99693.99;1681448;84;21264;-67
2021/05/06 07:59:03;;;;;;;4.35;1.98;;;;;;;14.38;53.20;99698.86;1661934;84;22334;-69
2021/05/06 08:01:31;;;;;;;6.00;1.87;;;;;;;14.30;53.67;99692.17;1650914;86;21592;-65
2021/05/06 08:03:58;;;;;;;2.40;1.40;;;;;;;14.23;53.79;99700.72;1659823;85;21225;-64
2021/05/06 08:06:26;;;;;;;4.25;1.90;;;;;;;14.18;54.04;99686.72;1655339;86;21207;-65
2021/05/06 08:08:54;;;;;;;2.65;1.70;;;;;;;14.16;54.10;99662.44;1667475;84;22250;-63
2021/05/06 08:11:22;;;;;;;1.87;1.77;;;;;;;14.17;54.39;99682.44;1692473;84;21239;-63
2021/05/06 08:13:50;;;;;;;4.08;1.90;;;;;;;14.22;54.39;99693.83;1690469;84;21291;-72
2021/05/06 08:16:18;;;;;;;4.05;2.20;;;;;;;14.28;54.19;99698.03;1653106;86;21187;-64
2021/05/06 08:18:46;;;;;;;1.80;1.70;;;;;;;14.31;54.08;99700.86;1686229;84;21158;-64
2021/05/06 08:21:16;;;;;;;3.67;1.55;;;;;;;14.31;53.69;99703.00;1678078;84;21295;-63
2021/05/06 08:23:45;;;;;;;6.83;1.85;;;;;;;14.32;53.89;99694.17;1685318;84;22221;-64
2021/05/06 08:26:13;;;;;;;4.37;2.15;;;;;;;14.34;53.57;99703.20;1685715;84;21315;-64
2021/05/06 08:28:43;;;;;;;3.12;1.60;;;;;;;14.29;53.86;99690.52;1672482;84;21102;-63
2021/05/06 08:31:10;;;;;;;3.22;1.72;;;;;;;14.26;54.30;99716.17;1671921;84;21288;-64
2021/05/06 08:33:41;;;;;;;3.58;1.70;;;;;;;14.28;54.61;99717.69;1677034;84;21169;-66
2021/05/06 08:36:10;;;;;;;1.70;1.60;;;;;;;14.41;54.66;99718.28;1670686;85;21191;-68
2021/05/06 08:38:38;;;;;;;2.92;1.77;;;;;;;14.54;54.32;99714.55;1672262;85;21583;-64
2021/05/06 08:41:06;;;;;;;2.40;1.90;;;;;;;14.66;54.14;99721.31;1675932;85;21186;-70
2021/05/06 08:43:38;;;;;;;7.55;2.52;;;;;;;14.77;54.34;99717.20;1667723;85;21163;-65
2021/05/06 08:46:05;;;;;;;4.62;1.80;;;;;;;14.96;54.50;99706.66;1678002;85;21154;-65
2021/05/06 08:48:35;;;;;;;1.75;1.65;;;;;;;15.20;54.36;99717.17;1663797;85;21198;-62
2021/05/06 08:51:05;;;;;;;3.02;2.10;;;;;;;15.38;53.85;99721.53;1678789;85;21155;-67
2021/05/06 08:53:32;;;;;;;3.85;1.77;;;;;;;15.40;53.55;99726.64;1660296;85;21231;-64
2021/05/06 08:56:00;;;;;;;5.15;2.75;;;;;;;15.31;53.91;99715.68;1640861;84;22258;-65
2021/05/06 08:58:27;;;;;;;3.33;2.42;;;;;;;15.24;53.98;99731.66;1632813;85;21280;-67
2021/05/06 09:00:55;;;;;;;4.67;2.30;;;;;;;15.12;54.49;99741.98;1653814;86;21168;-72
2021/05/06 09:03:23;;;;;;;7.87;2.67;;;;;;;15.00;54.84;99735.59;1651738;85;21164;-69
2021/05/06 09:06:18;;;;;;;4.00;2.02;;;;;;;14.92;55.06;99734.16;1656384;85;21212;-70
2021/05/06 09:11:35;;;;;;;6.12;2.47;;;;;;;14.98;55.74;99733.59;1810654;77;22209;-64
2021/05/06 09:14:09;;;;;;;4.00;2.95;;;;;;;15.08;55.82;99740.13;1715845;81;21217;-67
2021/05/06 09:16:42;;;;;;;3.42;2.30;;;;;;;15.29;55.90;99742.08;1716242;82;21167;-69
2021/05/06 09:19:13;;;;;;;2.40;2.15;;;;;;;15.51;54.87;99735.64;1743749;80;21568;-72
2021/05/06 09:21:46;;;;;;;4.28;2.60;;;;;;;15.66;54.41;99733.37;1718618;82;21162;-70
2021/05/06 09:24:22;;;;;;;4.35;2.58;;;;;;;15.74;54.44;99751.38;1713034;83;21564;-73
2021/05/06 09:26:57;;;;;;;4.28;2.83;;;;;;;15.84;54.35;99737.36;1717063;83;21545;-67
2021/05/06 09:29:48;;;;;;;5.70;2.47;;;;;;;15.91;54.16;99731.38;1719611;81;21300;-62
2021/05/06 09:32:22;;;;;;;3.62;2.80;;;;;;;15.93;53.91;99737.80;1719941;81;21178;-70
2021/05/06 09:34:52;;;;;;;4.47;2.72;;;;;;;15.83;54.20;99744.91;1735355;81;21154;-72
2021/05/06 09:37:28;;;;;;;6.95;2.30;;;;;;;15.77;54.46;99752.05;1715884;83;21157;-67
2021/05/06 09:40:02;;;;;;;4.35;2.92;;;;;;;15.73;54.86;99743.16;1716933;81;21892;-65
2021/05/06 09:42:41;;;;;;;6.08;2.95;;;;;;;15.68;55.09;99745.39;1713708;83;21148;-64
2021/05/06 09:45:27;;;;;;;4.40;2.40;;;;;;;15.63;55.38;99750.25;1715823;82;21185;-63
2021/05/06 09:48:11;;;;;;;6.67;3.10;;;;;;;15.57;56.29;99749.55;1722555;81;21805;-65
2021/05/06 09:50:40;;;;;;;6.62;3.25;;;;;;;15.48;57.01;99759.57;1742903;81;21197;-67
2021/05/06 09:53:14;;;;;;;5.03;3.05;;;;;;;15.41;57.49;99758.48;1737240;82;21137;-67
2021/05/06 09:55:43;;;;;;;4.58;3.52;;;;;;;15.28;58.29;99754.86;1729212;82;21162;-67
2021/05/06 09:58:24;;;;;;;5.40;4.00;;;;;;;15.15;59.22;99766.64;1706547;83;21634;-67
2021/05/06 10:00:52;;;;;;;4.47;3.30;;;;;;;15.06;59.88;99763.06;1719016;83;21176;-66
2021/05/06 10:03:32;;;;;;;6.50;3.58;;;;;;;14.96;60.89;99749.13;1713730;83;21176;-65
2021/05/06 10:06:18;;;;;;;6.55;3.20;;;;;;;14.82;60.87;99775.31;1713657;83;21170;-66
2021/05/06 10:08:48;;;;;;;5.03;4.08;;;;;;;14.71;61.62;99782.05;1721515;83;21148;-64
2021/05/06 10:11:18;;;;;;;8.33;4.58;;;;;;;14.61;63.07;99792.53;1737942;81;21510;-64
2021/05/06 10:13:47;;;;;;;6.85;4.35;;;;;;;14.49;64.18;99794.11;1713053;83;21241;-63
2021/05/06 10:16:16;;;;;;;6.12;4.08;;;;;;;14.39;64.80;99805.38;1767090;80;21536;-64
2021/05/06 10:18:45;;;;;;;5.70;3.35;;;;;;;14.31;65.30;99796.53;1769847;80;21153;-64
2021/05/06 10:21:16;;;;;;;3.70;2.75;;;;;;;14.19;65.45;99794.52;1756331;80;21184;-64
2021/05/06 10:23:48;;;;;;;5.92;3.77;;;;;;;14.08;65.98;99794.63;1766277;79;21154;-64
2021/05/06 10:26:15;;;;;;;5.80;3.17;;;;;;;14.04;66.09;99795.37;1765449;80;21679;-61
2021/05/06 10:28:44;;;;;;;6.08;3.70;;;;;;;14.05;65.92;99781.79;1728236;82;21145;-65
2021/05/06 10:31:12;;;;;;;6.50;4.50;;;;;;;14.05;65.96;99785.23;1715275;80;21303;-64
2021/05/06 10:33:42;;;;;;;6.97;3.72;;;;;;;14.09;65.58;99791.87;1766530;80;21171;-64
2021/05/06 10:36:12;;;;;;;3.12;2.80;;;;;;;14.11;64.58;99799.11;1773731;80;21106;-63
2021/05/06 10:38:41;;;;;;;5.65;3.52;;;;;;;14.13;64.27;99796.36;1772625;80;21291;-65
2021/05/06 10:41:31;;;;;;;6.37;3.60;;;;;;;14.13;64.11;99797.67;1741337;80;21371;-64
2021/05/06 10:44:05;;;;;;;5.62;2.65;;;;;;;14.14;64.16;99803.26;1766107;80;21165;-64
2021/05/06 10:47:03;;;;;;;5.37;3.45;;;;;;;14.17;64.39;99805.61;1776018;80;21161;-64
2021/05/06 10:49:44;;;;;;;6.85;4.28;;;;;;;14.20;64.39;99807.97;1770773;80;21487;-65
2021/05/06 10:52:12;;;;;;;7.05;4.00;;;;;;;14.22;64.25;99805.20;1772588;80;21476;-61
2021/05/06 10:54:53;;;;;;;7.67;3.87;;;;;;;14.24;64.59;99807.22;1776218;80;21165;-66
2021/05/06 10:57:32;;;;;;;8.33;4.10;;;;;;;14.26;64.66;99810.05;1767706;80;21138;-63
2021/05/06 10:59:58;;;;;;;6.28;3.52;;;;;;;14.27;64.77;99818.26;1770577;80;21155;-66
2021/05/06 11:02:47;;;;;;;7.05;3.75;;;;;;;14.28;64.72;99814.67;1773509;80;21153;-64
2021/05/06 11:05:24;;;;;;;6.78;3.40;;;;;;;14.26;65.00;99811.36;1765796;80;21125;-64
2021/05/06 11:08:09;;;;;;;10.98;4.05;;;;;;;14.25;65.85;99813.63;1756023;80;21145;-63
2021/05/06 11:11:12;;;;;;;7.35;4.40;;;;;;;14.27;66.35;99816.12;1769621;80;21217;-65
2021/05/06 11:14:08;;;;;;;6.42;3.75;;;;;;;14.30;67.44;99816.67;1694095;83;21291;-65
2021/05/06 11:16:37;;;;;;;4.17;2.75;;;;;;;14.27;68.11;99806.46;1757162;81;21143;-64
2021/05/06 11:19:04;;;;;;;7.75;4.22;;;;;;;14.29;68.61;99818.95;1761197;81;21175;-63
2021/05/06 11:21:36;;;;;;;7.85;4.30;;;;;;;14.37;69.11;99819.11;1766480;81;21397;-65
2021/05/06 11:24:18;;;;;;;6.28;4.37;;;;;;;14.46;69.40;99821.43;1768627;81;21154;-62
2021/05/06 11:29:46;;;;;;;5.67;4.40;;;;;;;14.62;69.39;99829.59;1816355;77;22189;-61
2021/05/06 11:32:35;;;;;;;7.78;4.83;;;;;;;14.66;69.78;99826.22;1775825;80;21292;-62
2021/05/06 11:35:03;;;;;;;5.90;4.75;;;;;;;14.70;69.13;99831.53;1766132;80;21163;-65
2021/05/06 11:37:32;;;;;;;6.78;5.33;;;;;;;14.74;69.28;99839.45;1766650;80;21200;-63
2021/05/06 11:40:11;;;;;;;7.78;5.17;;;;;;;14.76;69.35;99840.14;1770165;80;21134;-64
2021/05/06 11:42:39;;;;;;;7.25;5.50;;;;;;;14.79;69.43;99845.11;1774026;80;21135;-65
2021/05/06 11:45:21;;;;;;;7.90;5.65;;;;;;;14.79;68.91;99850.36;1708563;80;21344;-65
2021/05/06 11:47:50;;;;;;;7.53;6.58;;;;;;;14.79;68.69;99843.80;1776304;80;21143;-63
2021/05/06 11:50:32;;;;;;;8.73;6.33;;;;;;;14.81;68.90;99843.66;1712111;83;21194;-63
2021/05/06 11:53:01;;;;;;;10.58;6.53;;;;;;;14.83;69.12;99841.25;1730755;82;21299;-65
2021/05/06 11:55:39;;;;;;;9.40;5.90;;;;;;;14.89;69.33;99840.70;1706181;83;22191;-64
2021/05/06 11:58:09;;;;;;;;;;;;;;;14.95;68.58;99837.52;1707414;83;21149;-62
2021/05/06 12:00:42;;;;;;;6.25;4.55;;;;;;;14.96;66.19;99841.80;1709404;83;20187;-63
2021/05/06 12:03:10;;;;;;;4.83;4.03;;;;;;;14.91;64.89;99843.18;1725605;82;21533;-64
2021/05/06 12:05:52;;;;;;;;;;;;;;;14.84;64.55;99837.66;1724372;82;21172;-65
2021/05/06 12:08:22;;;;;;;6.23;4.37;;;;;;;14.77;64.21;99844.42;1724649;82;20405;-67
2021/05/06 12:10:53;;;;;;;5.08;4.58;;;;;;;14.73;64.11;99846.48;1724634;82;21134;-65
2021/05/06 12:13:27;;;;;;;5.35;4.08;;;;;;;14.71;62.92;99845.00;1722718;82;21151;-67
2021/05/06 12:16:13;;;;;;;5.53;4.87;;;;;;;14.68;62.72;99847.89;1729602;82;21166;-63
2021/05/06 12:18:41;;;;;;;5.78;5.03;;;;;;;14.64;62.05;99848.64;1718179;82;21179;-67
2021/05/06 12:21:09;;;;;;;5.62;4.55;;;;;;;14.60;62.31;99845.95;1723358;82;21199;-62
2021/05/06 12:23:42;;;;;;;7.50;5.40;;;;;;;14.59;61.99;99850.02;1722880;82;21296;-67
2021/05/06 12:26:17;;;;;;;4.10;3.80;;;;;;;14.57;61.39;99845.39;1735684;82;21674;-66
2021/05/06 12:28:45;;;;;;;7.67;5.30;;;;;;;14.53;60.74;99842.21;1708839;83;21556;-67
2021/05/06 12:31:12;;;;;;;7.25;5.22;;;;;;;14.52;60.77;99842.34;1754711;80;21507;-66
2021/05/06 12:33:39;;;;;;;6.87;5.65;;;;;;;14.51;61.34;99846.77;1766320;80;21571;-67
2021/05/06 12:36:13;;;;;;;8.35;5.60;;;;;;;14.53;61.28;99842.70;1759688;80;21354;-67
2021/05/06 12:38:41;;;;;;;5.53;4.35;;;;;;;14.52;61.43;99842.34;1773075;80;21138;-69
2021/05/06 12:41:09;;;;;;;7.05;5.08;;;;;;;14.51;62.10;99845.94;1770625;80;21548;-63
2021/05/06 12:43:51;;;;;;;6.43;5.47;;;;;;;14.52;62.88;99848.42;1765718;80;21204;-65
2021/05/06 12:46:25;;;;;;;6.22;5.62;;;;;;;14.55;63.12;99849.95;1771734;80;21568;-73
2021/05/06 12:48:59;;;;;;;7.30;6.60;;;;;;;14.54;63.41;99846.49;1703794;83;21557;-66
2021/05/06 12:51:34;;;;;;;6.70;5.90;;;;;;;14.53;63.34;99849.25;1769101;80;21158;-67
2021/05/06 12:54:11;;;;;;;8.08;6.30;;;;;;;14.53;63.02;99854.50;1767803;80;21170;-68
2021/05/06 12:56:41;;;;;;;6.95;5.87;;;;;;;14.51;62.03;99845.94;1777861;80;21517;-67
2021/05/06 12:59:28;;;;;;;5.00;4.53;;;;;;;14.49;62.10;99846.07;1772338;80;21560;-65
2021/05/06 13:02:09;;;;;;;9.53;6.42;;;;;;;14.48;61.91;99840.96;1772399;80;21154;-66
2021/05/06 13:04:52;;;;;;;7.03;5.60;;;;;;;14.45;62.19;99841.23;1772134;80;21291;-68
2021/05/06 13:07:20;;;;;;;6.67;5.80;;;;;;;14.42;62.14;99843.16;1766762;80;21146;-66
2021/05/06 13:09:51;;;;;;;6.85;6.12;;;;;;;14.37;61.76;99845.33;1768629;80;21271;-66
2021/05/06 13:12:25;;;;;;;7.37;6.53;;;;;;;14.35;61.59;99846.42;1763265;80;21497;-63
2021/05/06 13:14:56;;;;;;;7.25;6.45;;;;;;;14.32;61.72;99854.55;1756338;80;21220;-63
2021/05/06 13:17:30;;;;;;;7.95;5.70;;;;;;;14.28;61.31;99850.55;1764129;80;21369;-64
2021/05/06 13:20:17;;;;;;;8.90;7.12;;;;;;;14.25;61.41;99856.87;1770563;80;21087;-65
2021/05/06 13:23:13;;;;;;;9.40;6.33;;;;;;;14.23;61.88;99849.63;1695257;83;21176;-65
2021/05/06 13:25:54;;;;;;;7.70;6.03;;;;;;;14.23;61.59;99852.25;1769334;80;21569;-65
2021/05/06 13:28:35;;;;;;;8.33;6.30;;;;;;;14.24;61.81;99854.39;1759309;80;21242;-65
2021/05/06 13:31:25;;;;;;;6.77;5.40;;;;;;;14.27;62.05;99854.95;1783235;80;21174;-69
2021/05/06 13:33:52;;;;;;;6.65;4.22;;;;;;;14.28;60.69;99853.99;1714659;83;21181;-67
2021/05/06 13:36:23;;;;;;;6.65;4.35;;;;;;;14.25;60.18;99852.95;1664219;82;21480;-64
2021/05/06 13:38:57;;;;;;;7.03;5.37;;;;;;;14.23;60.32;99852.25;1663051;86;21574;-68
2021/05/06 13:41:30;;;;;;;5.25;4.75;;;;;;;14.22;59.98;99849.77;1676222;85;21164;-74
2021/05/06 13:43:59;;;;;;;5.33;4.80;;;;;;;14.18;60.01;99851.83;1687610;84;21314;-64
2021/05/06 13:46:28;;;;;;;7.33;5.75;;;;;;;14.16;60.60;99860.30;1671181;85;21209;-63
2021/05/06 13:48:56;;;;;;;9.05;6.33;;;;;;;14.13;61.13;99864.50;1690017;84;21366;-66
2021/05/06 13:51:25;;;;;;;10.78;7.22;;;;;;;14.13;61.72;99866.28;1676005;85;21945;-67
2021/05/06 13:53:52;;;;;;;7.67;6.67;;;;;;;14.11;61.91;99858.55;1694097;84;21169;-61
2021/05/06 13:56:20;;;;;;;9.73;6.92;;;;;;;14.12;61.87;99856.28;1689905;84;21169;-62
2021/05/06 13:58:50;;;;;;;9.78;6.90;;;;;;;14.15;61.91;99852.09;1692355;83;22201;-63
2021/05/06 14:01:19;;;;;;;7.03;5.92;;;;;;;14.19;62.02;99856.10;1674836;85;21342;-63
2021/05/06 14:03:46;;;;;;;6.80;5.72;;;;;;;14.22;61.93;99849.28;1704336;83;21564;-64
2021/05/06 14:06:14;;;;;;;6.58;5.55;;;;;;;14.23;61.62;99861.42;1691907;83;21165;-65
2021/05/06 14:08:44;;;;;;;6.80;5.53;;;;;;;14.23;60.69;99855.36;1700597;83;21560;-64
2021/05/06 14:11:11;;;;;;;8.88;5.85;;;;;;;14.22;60.48;99864.18;1692768;83;21616;-69
2021/05/06 14:13:40;;;;;;;5.58;4.87;;;;;;;14.21;60.68;99862.04;1691526;83;21287;-69
2021/05/06 14:16:10;;;;;;;9.78;5.72;;;;;;;14.22;60.22;99858.45;1706054;83;21292;-63
2021/05/06 14:18:38;;;;;;;7.20;5.45;;;;;;;14.22;60.29;99859.77;1693811;83;21568;-64
2021/05/06 14:21:08;;;;;;;7.90;5.30;;;;;;;14.25;60.76;99856.05;1693519;83;21181;-69
2021/05/06 14:23:43;;;;;;;5.12;4.65;;;;;;;14.30;60.38;99854.69;1710670;83;21202;-64
2021/05/06 14:26:08;;;;;;;6.78;5.05;;;;;;;14.38;59.72;99857.47;1697032;83;21701;-63
2021/05/06 14:28:38;;;;;;;5.72;4.67;;;;;;;14.49;59.22;99850.48;1695856;83;21192;-66
2021/05/06 14:31:05;;;;;;;4.28;3.98;;;;;;;14.59;58.90;99853.95;1708445;83;21121;-64
2021/05/06 14:33:33;;;;;;;7.15;3.95;;;;;;;14.69;57.94;99852.17;1708325;83;21227;-65
2021/05/06 14:36:08;;;;;;;4.72;3.85;;;;;;;14.76;57.62;99856.70;1713745;83;21244;-66
2021/05/06 14:38:36;;;;;;;3.12;2.92;;;;;;;14.85;57.55;99854.23;1717439;83;21156;-66
2021/05/06 14:41:04;;;;;;;3.45;3.20;;;;;;;14.93;57.46;99863.06;1719247;83;21389;-69
2021/05/06 14:43:32;;;;;;;4.22;3.83;;;;;;;15.00;56.94;99865.48;1715912;83;21170;-71
2021/05/06 14:46:00;;;;;;;5.45;4.08;;;;;;;15.04;56.68;99861.63;1713842;83;21872;-67
2021/05/06 14:48:28;;;;;;;2.65;2.45;;;;;;;15.15;56.41;99870.32;1716847;83;21149;-65
2021/05/06 14:51:01;;;;;;;2.10;2.00;;;;;;;15.28;55.74;99853.80;1683464;85;21197;-62
2021/05/06 14:53:30;;;;;;;2.58;1.92;;;;;;;15.40;55.00;99851.36;1655110;85;21158;-63
2021/05/06 14:55:58;;;;;;;2.20;1.87;;;;;;;15.44;55.09;99846.17;1681309;85;21367;-64
2021/05/06 14:58:29;;;;;;;2.52;1.82;;;;;;;15.48;54.74;99834.90;1684956;85;21142;-64